Time;durP1;ratioP1;P1;durP2;ratioP2;P2;SDS_P1;SDS_P2;PMS_P1;PMS_P2;Temp;Humidity;BMP_temperature;BMP_pressure;BME280_temperature;BME280_humidity;BME280_pressure;Samples;Min_cycle;Max_cycle;Signal;HPM_P1;HPM_P2
2022/04/08 04:31:24;;;;;;;;;0.00;0.00;;;;;10.44;62.88;99826.03;5072144;27;45596;-77
2022/04/08 04:33:49;;;;;;;;;2.00;1.00;;;;;10.49;63.29;99818.56;5071652;28;45639;-78
2022/04/08 04:36:15;;;;;;;;;2.00;1.00;;;;;10.59;63.90;99819.72;5057352;28;45483;-78
2022/04/08 04:38:40;;;;;;;;;2.00;1.00;;;;;10.64;63.27;99820.31;5057654;28;45405;-77
2022/04/08 04:41:06;;;;;;;;;1.00;0.00;;;;;10.49;63.08;99787.25;5058074;28;45285;-78
2022/04/08 04:43:31;;;;;;;;;4.00;1.00;;;;;10.65;62.78;99808.63;5049290;28;45612;-77
2022/04/08 04:45:56;;;;;;;;;2.00;1.00;;;;;10.64;62.92;99801.53;5057422;28;45505;-78
2022/04/08 04:48:22;;;;;;;;;0.75;0.75;;;;;10.73;63.36;99800.97;5057305;28;45206;-79
2022/04/08 04:50:48;;;;;;;;;3.00;0.75;;;;;10.71;62.73;99789.50;5057350;28;45547;-78
2022/04/08 04:53:14;;;;;;;;;3.50;0.00;;;;;10.67;62.46;99768.34;5038889;28;46163;-77
2022/04/08 04:55:39;;;;;;;;;2.25;1.00;;;;;10.81;62.59;99769.19;5055849;28;45959;-78
2022/04/08 04:58:05;;;;;;;;;0.00;0.00;;;;;10.73;62.69;99759.91;5057316;28;45335;-76
2022/04/08 05:00:31;;;;;;;;;0.00;0.00;;;;;10.77;62.68;99767.69;5056115;28;45328;-77
2022/04/08 05:02:56;;;;;;;;;0.00;0.00;;;;;10.75;62.67;99750.81;5056894;28;45406;-78
2022/04/08 05:05:21;;;;;;;;;2.25;0.00;;;;;10.71;62.97;99746.63;5056890;28;45351;-77
2022/04/08 05:07:47;;;;;;;;;1.75;1.00;;;;;10.41;62.93;99735.97;5057190;28;45257;-76
2022/04/08 05:10:12;;;;;;;;;2.00;1.00;;;;;10.41;63.19;99719.03;5057621;28;45323;-78
2022/04/08 05:12:37;;;;;;;;;2.50;1.00;;;;;10.49;63.45;99739.03;5073704;28;45390;-78
2022/04/08 05:15:09;;;;;;;;;2.50;1.00;;;;;10.42;63.26;99723.44;5057464;28;45245;-78
2022/04/08 05:17:35;;;;;;;;;1.25;1.25;;;;;10.34;62.98;99697.09;5057112;28;45413;-81
2022/04/08 05:20:05;;;;;;;;;0.00;0.00;;;;;10.49;62.95;99708.69;5057031;28;45335;-76
2022/04/08 05:22:32;;;;;;;;;1.00;1.00;;;;;10.50;62.66;99710.41;5062959;28;45486;-76
2022/04/08 05:24:59;;;;;;;;;2.00;0.00;;;;;10.45;63.61;99691.97;5064348;28;45334;-79
2022/04/08 05:27:25;;;;;;;;;3.00;1.00;;;;;10.47;63.30;99697.19;5069248;28;45359;-77
2022/04/08 05:29:50;;;;;;;;;2.00;0.50;;;;;10.55;63.23;99701.13;5057124;28;45383;-79
2022/04/08 05:32:16;;;;;;;;;2.25;2.00;;;;;10.58;62.08;99695.59;5068746;28;45497;-77
2022/04/08 05:34:41;;;;;;;;;0.50;0.00;;;;;10.54;62.63;99687.84;5063705;27;45408;-74
2022/04/08 05:37:07;;;;;;;;;2.00;1.00;;;;;10.50;61.59;99691.66;5056394;28;45407;-74
2022/04/08 05:39:33;;;;;;;;;0.50;0.50;;;;;10.44;62.86;99679.50;5056956;28;45562;-73
2022/04/08 05:41:58;;;;;;;;;0.75;0.75;;;;;10.39;62.98;99668.19;5056417;28;45449;-74
2022/04/08 05:44:24;;;;;;;;;1.00;1.00;;;;;10.50;63.55;99667.53;5056419;28;45294;-73
2022/04/08 05:46:49;;;;;;;;;0.50;0.50;;;;;10.40;63.03;99640.47;5056688;28;45312;-79
2022/04/08 05:49:14;;;;;;;;;1.00;0.00;;;;;10.62;62.70;99661.41;5057025;28;45838;-75
2022/04/08 05:51:40;;;;;;;;;2.25;0.50;;;;;10.67;62.88;99663.78;5056119;28;45465;-75
2022/04/08 05:54:05;;;;;;;;;1.25;0.75;;;;;10.72;63.63;99659.03;5056420;28;45574;-76
2022/04/08 05:56:30;;;;;;;;;1.00;1.00;;;;;10.68;63.78;99638.72;5056377;28;45446;-77
2022/04/08 05:58:57;;;;;;;;;0.00;0.00;;;;;10.74;63.31;99639.19;5056523;28;45540;-75
2022/04/08 06:01:23;;;;;;;;;2.50;1.00;;;;;10.60;64.18;99605.22;5056644;28;45347;-78
2022/04/08 06:03:48;;;;;;;;;2.00;1.00;;;;;10.81;64.46;99624.41;5056250;28;46263;-77
2022/04/08 06:06:13;;;;;;;;;5.00;1.00;;;;;10.81;64.68;99616.38;5055822;28;45407;-77
2022/04/08 06:08:39;;;;;;;;;0.75;0.75;;;;;10.87;65.57;99626.72;5056490;28;45545;-74
2022/04/08 06:11:04;;;;;;;;;1.00;0.00;;;;;10.72;65.05;99587.47;5056685;28;45396;-81
2022/04/08 06:13:29;;;;;;;;;2.00;1.00;;;;;10.84;65.75;99593.88;5038772;28;47157;-77
2022/04/08 06:15:55;;;;;;;;;2.00;1.75;;;;;10.90;65.89;99586.28;5056024;28;45327;-76
2022/04/08 06:18:21;;;;;;;;;0.50;0.50;;;;;10.98;65.46;99588.47;5056024;28;45409;-77
2022/04/08 06:20:46;;;;;;;;;0.75;0.75;;;;;10.96;65.32;99575.19;5055420;28;45543;-77
2022/04/08 06:23:12;;;;;;;;;0.25;0.25;;;;;10.93;64.78;99569.16;5055833;28;46110;-76
2022/04/08 06:25:37;;;;;;;;;2.75;1.00;;;;;11.04;64.47;99571.13;5055578;28;45446;-77
2022/04/08 06:28:05;;;;;;;;;0.75;0.75;;;;;10.94;64.57;99550.28;5055971;28;45347;-76
2022/04/08 06:30:38;;;;;;;;;1.75;0.50;;;;;10.98;63.99;99553.59;5052763;28;45760;-75
2022/04/08 06:33:05;;;;;;;;;1.75;1.00;;;;;10.81;64.20;99529.72;5041654;28;48056;-76
2022/04/08 06:35:31;;;;;;;;;1.50;1.50;;;;;10.86;64.52;99547.25;5056038;28;45554;-74
2022/04/08 06:37:59;;;;;;;;;2.00;2.00;;;;;10.88;64.84;99545.31;5055485;28;45359;-74
2022/04/08 06:40:25;;;;;;;;;3.25;2.50;;;;;10.81;64.46;99552.03;5055108;28;45584;-77
2022/04/08 06:42:55;;;;;;;;;4.75;2.00;;;;;10.82;65.83;99551.06;5053848;28;45528;-76
2022/04/08 06:45:21;;;;;;;;;1.00;1.00;;;;;10.82;65.99;99545.72;5048797;28;45536;-76
2022/04/08 06:47:51;;;;;;;;;3.75;1.00;;;;;10.83;66.40;99544.75;5048615;28;45477;-77
2022/04/08 06:50:16;;;;;;;;;1.75;1.00;;;;;10.73;65.34;99518.66;5055034;28;46227;-75
2022/04/08 06:52:42;;;;;;;;;1.00;1.00;;;;;10.85;65.42;99541.97;5054621;28;45826;-76
2022/04/08 06:55:08;;;;;;;;;2.00;1.00;;;;;10.86;65.17;99539.19;5053743;28;45387;-75
2022/04/08 06:57:34;;;;;;;;;0.00;0.00;;;;;10.90;65.32;99547.88;5055575;28;45331;-73
2022/04/08 06:59:59;;;;;;;;;1.00;1.00;;;;;10.92;64.79;99540.59;5055328;28;45229;-74
2022/04/08 07:02:25;;;;;;;;;3.00;1.00;;;;;10.87;63.44;99526.66;5055041;28;45477;-77
2022/04/08 07:04:51;;;;;;;;;2.50;0.00;;;;;10.93;63.87;99540.50;5055395;28;45476;-76
2022/04/08 07:07:17;;;;;;;;;2.25;1.00;;;;;10.96;63.96;99539.44;5055474;28;45392;-78
2022/04/08 07:09:42;;;;;;;;;0.75;0.75;;;;;10.87;63.94;99523.97;5054979;28;45327;-79
2022/04/08 07:12:07;;;;;;;;;2.50;0.75;;;;;10.88;63.89;99520.34;5054809;28;45342;-78
2022/04/08 07:14:33;;;;;;;;;2.75;1.00;;;;;10.92;64.73;99528.06;5054868;28;45302;-76
2022/04/08 07:16:58;;;;;;;;;2.00;0.75;;;;;10.80;65.05;99504.72;5054309;28;45604;-77
2022/04/08 07:19:24;;;;;;;;;2.75;1.25;;;;;10.94;65.95;99512.72;5055292;28;45339;-77
2022/04/08 07:21:49;;;;;;;;;1.00;1.00;;;;;11.00;65.77;99512.31;5054212;28;46013;-77
2022/04/08 07:24:14;;;;;;;;;3.00;3.00;;;;;10.97;65.51;99503.63;5042688;28;45466;-77
2022/04/08 07:26:40;;;;;;;;;3.00;1.50;;;;;10.99;65.89;99494.50;5067587;28;45398;-74
2022/04/08 07:29:05;;;;;;;;;3.25;2.00;;;;;10.95;65.19;99478.72;5055420;28;45329;-76
2022/04/08 07:31:31;;;;;;;;;3.00;1.00;;;;;11.00;63.24;99473.91;5060791;28;45886;-76
2022/04/08 07:33:56;;;;;;;;;2.50;2.00;;;;;11.05;63.88;99469.13;5068382;28;45327;-76
2022/04/08 07:36:23;;;;;;;;;1.50;0.25;;;;;10.91;63.57;99445.91;5054450;28;45590;-77
2022/04/08 07:38:48;;;;;;;;;0.50;0.00;;;;;10.96;64.14;99440.25;5054474;28;45886;-76
2022/04/08 07:41:14;;;;;;;;;1.00;1.00;;;;;11.02;63.02;99447.00;5054729;28;45863;-76
2022/04/08 07:43:39;;;;;;;;;1.75;1.75;;;;;11.02;62.79;99436.25;5036782;28;45490;-77
2022/04/08 07:46:05;;;;;;;;;3.25;1.50;;;;;11.00;62.41;99425.63;5055188;28;45356;-78
2022/04/08 07:48:31;;;;;;;;;3.25;2.00;;;;;10.74;63.53;99386.34;5054103;28;45449;-75
2022/04/08 07:50:57;;;;;;;;;2.25;1.25;;;;;10.93;63.23;99419.84;5052590;28;46707;-76
2022/04/08 07:53:23;;;;;;;;;2.75;1.00;;;;;10.92;62.51;99420.81;5035922;28;45357;-77
2022/04/08 07:55:48;;;;;;;;;1.50;1.25;;;;;10.86;63.22;99407.81;5054417;28;45471;-76
2022/04/08 07:58:13;;;;;;;;;1.00;1.00;;;;;10.79;63.06;99403.84;5054476;28;45573;-77
2022/04/08 08:00:39;;;;;;;;;1.00;1.00;;;;;10.78;63.63;99396.75;5054411;28;45351;-77
2022/04/08 08:03:04;;;;;;;;;2.00;0.50;;;;;10.77;62.71;99400.41;5054357;28;45394;-76
2022/04/08 08:05:31;;;;;;;;;2.25;1.00;;;;;10.69;63.31;99384.00;5054064;28;45563;-75
2022/04/08 08:07:58;;;;;;;;;2.50;0.75;;;;;10.75;63.13;99380.03;5037021;28;45592;-76
2022/04/08 08:10:29;;;;;;;;;0.50;0.00;;;;;10.77;64.44;99372.75;5054248;28;45367;-75
2022/04/08 08:12:56;;;;;;;;;1.75;1.00;;;;;10.77;64.25;99370.06;5054521;28;45422;-74
2022/04/08 08:15:23;;;;;;;;;1.75;1.75;;;;;10.78;64.63;99374.47;5054770;28;45536;-77
2022/04/08 08:17:49;;;;;;;;;1.00;1.00;;;;;10.71;63.83;99355.25;5054377;28;45360;-75
2022/04/08 08:20:16;;;;;;;;;1.75;1.00;;;;;10.75;64.45;99353.22;5053627;28;46011;-76
2022/04/08 08:22:42;;;;;;;;;1.00;1.00;;;;;10.75;64.31;99361.25;5053230;28;45808;-76
2022/04/08 08:25:10;;;;;;;;;1.50;1.00;;;;;10.74;64.91;99349.66;5054104;28;45265;-73
2022/04/08 08:27:42;;;;;;;;;5.75;1.25;;;;;10.73;65.75;99350.63;5054021;28;45475;-75
2022/04/08 08:30:10;;;;;;;;;1.25;0.00;;;;;10.59;65.07;99306.03;5053630;28;46128;-74
2022/04/08 08:32:39;;;;;;;;;3.00;1.00;;;;;10.67;65.50;99326.94;5068888;28;45392;-75
2022/04/08 08:35:08;;;;;;;;;1.75;1.00;;;;;10.66;65.41;99319.84;5056937;28;45332;-75
2022/04/08 08:37:33;;;;;;;;;1.00;1.00;;;;;10.66;64.90;99325.22;5053391;28;45601;-71
2022/04/08 08:40:00;;;;;;;;;1.25;1.25;;;;;10.56;65.58;99306.22;5053051;28;45512;-73
2022/04/08 08:42:26;;;;;;;;;3.00;1.00;;;;;10.58;64.55;99303.44;5053209;28;45616;-74
2022/04/08 08:44:52;;;;;;;;;4.25;3.75;;;;;10.46;63.40;99299.78;5053505;28;45382;-75
2022/04/08 08:47:18;;;;;;;;;5.25;4.25;;;;;10.46;64.17;99307.00;5053326;28;45398;-74
2022/04/08 08:49:49;;;;;;;;;0.50;0.50;;;;;10.40;65.06;99297.53;5056078;28;45780;-75
2022/04/08 08:52:17;;;;;;;;;1.00;1.00;;;;;10.27;64.97;99285.09;5053419;28;45419;-77
2022/04/08 08:54:43;;;;;;;;;2.75;1.00;;;;;10.36;65.40;99287.13;5035283;28;45333;-75
2022/04/08 08:57:10;;;;;;;;;0.50;0.50;;;;;10.34;65.33;99287.25;5052469;28;45531;-75
2022/04/08 08:59:36;;;;;;;;;1.50;1.50;;;;;10.34;65.63;99268.50;5053488;28;45953;-74
2022/04/08 09:02:03;;;;;;;;;1.00;1.00;;;;;10.21;66.22;99236.31;5053188;28;45361;-74
2022/04/08 09:04:29;;;;;;;;;1.50;1.50;;;;;10.34;66.54;99251.56;5053556;28;45496;-74
2022/04/08 09:06:55;;;;;;;;;1.75;1.75;;;;;10.39;65.95;99242.22;5053196;28;45514;-73
2022/04/08 09:09:31;;;;;;;;;2.50;1.75;;;;;10.36;65.10;99239.78;5055120;28;45939;-77
2022/04/08 09:12:15;;;;;;;;;1.50;1.00;;;;;10.34;65.95;99230.13;5058141;28;45275;-72
2022/04/08 09:15:01;;;;;;;;;1.50;1.00;;;;;10.30;65.71;99223.25;5040734;28;45292;-74
2022/04/08 09:17:28;;;;;;;;;3.00;2.00;;;;;10.25;66.35;99212.88;5059155;28;45339;-76
2022/04/08 09:19:55;;;;;;;;;1.00;1.00;;;;;10.21;66.35;99206.84;5057315;28;46170;-74
2022/04/08 09:22:25;;;;;;;;;1.00;1.00;;;;;10.25;66.17;99210.19;5056718;28;45408;-73
2022/04/08 09:24:51;;;;;;;;;1.50;1.00;;;;;10.22;65.89;99194.31;5056700;28;45539;-76
2022/04/08 09:27:16;;;;;;;;;1.75;1.00;;;;;10.20;65.80;99185.56;5050098;28;45432;-74
2022/04/08 09:29:44;;;;;;;;;2.00;2.00;;;;;10.15;65.67;99185.81;5068814;28;45418;-74
2022/04/08 09:32:11;;;;;;;;;3.00;0.00;;;;;10.07;66.43;99179.28;5066764;28;45415;-73
2022/04/08 09:34:37;;;;;;;;;1.00;1.00;;;;;10.09;66.99;99213.03;5064535;28;45616;-75
2022/04/08 09:37:10;;;;;;;;;7.00;2.00;;;;;9.92;66.37;99183.88;5056585;28;45284;-73
2022/04/08 09:39:37;;;;;;;;;2.00;1.00;;;;;10.07;67.05;99208.72;5055801;28;45943;-74
2022/04/08 09:42:06;;;;;;;;;1.00;1.00;;;;;10.04;66.92;99212.47;5043568;28;46032;-75
2022/04/08 09:44:35;;;;;;;;;1.50;1.50;;;;;10.10;67.55;99229.97;5055710;28;45407;-75
2022/04/08 09:47:01;;;;;;;;;1.00;1.00;;;;;10.13;67.14;99248.47;5076735;28;45548;-74
2022/04/08 09:49:26;;;;;;;;;2.00;1.00;;;;;10.10;67.10;99235.31;5076553;28;46106;-76
2022/04/08 09:51:54;;;;;;;;;1.00;1.00;;;;;10.04;67.05;99208.94;5076598;28;45295;-75
2022/04/08 09:54:22;;;;;;;;;1.50;1.50;;;;;10.07;67.88;99224.81;5076556;28;45389;-72
2022/04/08 09:56:48;;;;;;;;;4.00;1.00;;;;;10.13;68.45;99243.13;5072256;28;45521;-74
2022/04/08 09:59:16;;;;;;;;;1.00;1.00;;;;;10.09;67.76;99231.78;5055789;28;45472;-74
2022/04/08 10:01:44;;;;;;;;;1.50;1.50;;;;;10.13;66.22;99198.47;5056214;28;45344;-73
2022/04/08 10:04:11;;;;;;;;;0.25;0.25;;;;;10.15;66.01;99182.28;5052382;28;45284;-78
2022/04/08 10:06:41;;;;;;;;;1.00;1.00;;;;;10.09;66.60;99186.25;5056136;28;45615;-76
2022/04/08 10:09:10;;;;;;;;;1.75;1.75;;;;;10.14;67.09;99243.03;5055901;28;46005;-76
2022/04/08 10:11:47;;;;;;;;;2.00;2.00;;;;;10.08;65.69;99248.81;5056050;28;45508;-75
2022/04/08 10:14:31;;;;;;;;;2.00;1.00;;;;;10.01;66.56;99210.03;5056406;28;45553;-76
2022/04/08 10:16:58;;;;;;;;;2.75;1.75;;;;;9.96;67.23;99225.53;5056172;28;45422;-74
2022/04/08 10:19:23;;;;;;;;;1.75;1.75;;;;;9.85;67.45;99193.28;5055391;28;45391;-77
2022/04/08 10:21:54;;;;;;;;;1.00;1.00;;;;;9.98;67.97;99199.50;5054470;28;45320;-75
2022/04/08 10:24:24;;;;;;;;;3.00;2.00;;;;;9.92;66.86;99207.09;5044238;28;45521;-75
2022/04/08 10:27:09;;;;;;;;;3.00;1.00;;;;;9.92;67.35;99186.56;5067729;28;45849;-76
2022/04/08 10:29:35;;;;;;;;;3.00;2.00;;;;;9.92;67.11;99188.38;5055985;28;45375;-76
2022/04/08 10:32:15;;;;;;;;;2.75;2.25;;;;;9.92;68.32;99167.81;5065785;28;45484;-76
2022/04/08 10:34:40;;;;;;;;;1.00;1.00;;;;;10.04;67.26;99182.16;5061624;28;45426;-76
2022/04/08 10:37:24;;;;;;;;;2.00;2.00;;;;;10.06;67.27;99153.47;5074706;28;45609;-75
2022/04/08 10:40:02;;;;;;;;;5.00;4.00;;;;;9.96;66.63;99093.47;5074501;28;46677;-75
2022/04/08 10:42:29;;;;;;;;;2.25;2.25;;;;;10.14;66.25;99122.50;5075386;28;45405;-74
2022/04/08 10:44:55;;;;;;;;;2.75;2.75;;;;;10.10;65.98;99098.75;5075628;28;45609;-71
2022/04/08 10:47:21;;;;;;;;;2.50;2.50;;;;;10.06;66.51;99071.31;5075732;28;45372;-70
2022/04/08 10:50:03;;;;;;;;;1.00;1.00;;;;;10.09;66.80;99059.56;5075236;28;45252;-76
2022/04/08 10:52:31;;;;;;;;;2.50;2.50;;;;;10.20;67.12;99090.00;5059371;28;45533;-74
2022/04/08 10:55:08;;;;;;;;;3.25;3.00;;;;;10.31;67.51;99107.97;5056906;28;45552;-72
2022/04/08 10:57:38;;;;;;;;;3.00;3.00;;;;;10.38;66.63;99093.16;5054830;28;45999;-75
2022/04/08 11:00:20;;;;;;;;;7.25;7.25;;;;;10.35;66.63;99063.94;5056219;28;46282;-73
2022/04/08 11:02:46;;;;;;;;;5.00;5.00;;;;;10.44;66.96;99140.13;5056236;28;45454;-72
2022/04/08 11:05:14;;;;;;;;;6.25;5.00;;;;;10.42;66.83;99124.16;5056084;28;45344;-74
2022/04/08 11:07:41;;;;;;;;;7.50;6.00;;;;;10.38;67.33;99103.88;5055285;28;45608;-72
2022/04/08 11:10:10;;;;;;;;;4.75;4.75;;;;;10.32;67.89;99115.03;5055064;28;45474;-72
2022/04/08 11:12:49;;;;;;;;;4.00;4.00;;;;;10.39;67.97;99105.59;5054864;28;45377;-71
2022/04/08 11:15:16;;;;;;;;;8.50;4.25;;;;;10.44;67.84;99098.13;5052788;28;45308;-74
2022/04/08 11:17:42;;;;;;;;;2.75;2.75;;;;;10.53;68.75;99112.69;5054618;28;45482;-73
2022/04/08 11:20:13;;;;;;;;;4.75;3.00;;;;;10.64;67.74;99123.47;5055013;28;46193;-73
2022/04/08 11:22:43;;;;;;;;;4.00;4.00;;;;;10.71;66.82;99106.00;5054467;28;45482;-74
2022/04/08 11:25:17;;;;;;;;;3.75;3.75;;;;;10.74;66.59;99096.84;5054520;28;45458;-72
2022/04/08 11:27:43;;;;;;;;;6.50;4.50;;;;;10.79;66.29;99100.06;5055014;28;45348;-72
2022/04/08 11:30:09;;;;;;;;;5.50;5.50;;;;;10.81;66.99;99107.00;5054721;28;46160;-73
2022/04/08 11:32:35;;;;;;;;;4.75;4.75;;;;;10.81;66.20;99090.94;5069624;28;45513;-72
2022/04/08 11:35:10;;;;;;;;;3.25;3.00;;;;;10.84;67.11;99073.78;5058980;28;45444;-71
2022/04/08 11:37:36;;;;;;;;;9.00;5.00;;;;;11.03;67.65;99090.22;5054990;28;45517;-71
2022/04/08 11:40:03;;;;;;;;;4.50;4.50;;;;;11.08;67.61;99071.94;5055634;28;45335;-72
2022/04/08 11:42:29;;;;;;;;;9.00;5.00;;;;;10.99;66.36;99014.50;5055239;28;45458;-73
2022/04/08 11:44:54;;;;;;;;;5.75;5.00;;;;;11.12;66.42;99049.31;5053388;28;45395;-74
2022/04/08 11:47:31;;;;;;;;;3.00;3.00;;;;;11.05;67.31;99074.03;5049254;28;45373;-72
2022/04/08 11:50:07;;;;;;;;;5.50;5.50;;;;;11.04;67.48;99083.91;5044363;28;46081;-74
2022/04/08 11:52:32;;;;;;;;;4.00;4.00;;;;;10.89;66.88;99059.06;5028928;28;45890;-72
2022/04/08 11:55:06;;;;;;;;;5.50;5.50;;;;;10.93;66.49;99057.88;5054341;28;45356;-72
2022/04/08 11:57:33;;;;;;;;;5.50;5.50;;;;;10.86;67.38;99069.16;5053583;28;45656;-74
2022/04/08 12:00:01;;;;;;;;;6.50;4.75;;;;;10.76;67.24;99063.63;5052653;28;45515;-73
2022/04/08 12:02:27;;;;;;;;;5.00;5.00;;;;;10.76;66.93;99063.63;5053387;28;46206;-72
2022/04/08 12:04:53;;;;;;;;;7.00;7.00;;;;;10.77;67.55;99041.22;5052703;28;45527;-73
2022/04/08 12:07:23;;;;;;;;;9.25;8.75;;;;;10.79;67.55;99027.69;5054473;28;45473;-73
2022/04/08 12:09:50;;;;;;;;;8.00;7.00;;;;;10.76;68.02;99020.72;5053697;28;45351;-74
2022/04/08 12:12:22;;;;;;;;;10.75;9.25;;;;;10.89;67.88;99034.91;5055069;28;45604;-73
2022/04/08 12:14:48;;;;;;;;;9.00;7.75;;;;;10.87;67.29;99033.34;5052244;28;45534;-74
2022/04/08 12:17:13;;;;;;;;;7.00;5.00;;;;;10.95;68.09;99005.00;5051831;28;45415;-73
2022/04/08 12:19:40;;;;;;;;;8.25;8.00;;;;;11.02;67.87;98993.81;5053268;28;45280;-74
2022/04/08 12:22:14;;;;;;;;;9.75;7.00;;;;;11.12;67.45;99000.19;5053463;28;45390;-73
2022/04/08 12:24:42;;;;;;;;;6.00;5.00;;;;;11.09;67.12;98989.69;5035541;28;45594;-74
2022/04/08 12:27:22;;;;;;;;;8.25;8.25;;;;;11.09;67.01;98992.34;5053402;28;45413;-72
2022/04/08 12:30:08;;;;;;;;;5.50;4.00;;;;;11.14;67.31;98993.75;5053240;28;45983;-72
2022/04/08 12:32:36;;;;;;;;;7.75;7.75;;;;;11.16;68.20;99015.06;5068781;28;45342;-73
2022/04/08 12:35:03;;;;;;;;;8.00;8.00;;;;;11.17;68.61;99046.28;5058125;28;45435;-73
2022/04/08 12:37:28;;;;;;;;;10.00;9.75;;;;;11.13;67.79;99042.97;5046246;28;46419;-71
2022/04/08 12:39:53;;;;;;;;;10.25;9.00;;;;;11.11;67.66;99047.59;5048763;28;45887;-72
2022/04/08 12:42:19;;;;;;;;;6.00;6.00;;;;;10.99;67.98;99024.38;5054218;28;45326;-73
2022/04/08 12:44:44;;;;;;;;;8.25;7.50;;;;;11.03;67.68;98982.97;5055993;28;45521;-72
2022/04/08 12:47:11;;;;;;;;;9.25;8.25;;;;;11.01;67.67;98998.31;5057255;28;45469;-72
2022/04/08 12:49:36;;;;;;;;;9.50;8.00;;;;;10.92;68.09;99009.72;5056838;28;47356;-72
2022/04/08 12:52:01;;;;;;;;;5.00;5.00;;;;;10.89;69.38;99060.88;5057242;28;45334;-72
2022/04/08 12:54:27;;;;;;;;;9.25;7.75;;;;;10.84;69.70;99061.22;5057620;28;45610;-73
2022/04/08 12:56:52;;;;;;;;;9.50;8.75;;;;;10.86;68.48;99055.75;5056828;28;45488;-74
2022/04/08 12:59:17;;;;;;;;;8.00;8.00;;;;;10.81;68.84;99058.75;5056997;28;46195;-72
2022/04/08 13:01:43;;;;;;;;;4.25;4.25;;;;;10.68;68.58;99035.66;5057289;28;45199;-74
2022/04/08 13:04:08;;;;;;;;;7.25;6.00;;;;;10.74;68.67;99022.66;5056867;28;45330;-72
2022/04/08 13:06:34;;;;;;;;;7.75;5.50;;;;;10.67;68.25;99033.94;5056800;28;45537;-73
2022/04/08 13:08:59;;;;;;;;;8.75;6.75;;;;;10.59;68.21;99109.53;5056130;28;45931;-72
2022/04/08 13:11:25;;;;;;;;;9.50;8.50;;;;;10.39;67.09;99065.41;5057470;28;45494;-71
2022/04/08 13:13:50;;;;;;;;;8.50;8.00;;;;;10.43;66.96;99157.16;5056574;28;45379;-73
2022/04/08 13:16:15;;;;;;;;;5.00;5.00;;;;;10.32;65.30;99138.28;5056823;28;45462;-72
2022/04/08 13:18:41;;;;;;;;;6.00;6.00;;;;;10.21;66.37;99090.84;5056384;28;45407;-71
2022/04/08 13:21:06;;;;;;;;;7.00;5.00;;;;;10.15;67.04;99081.38;5056652;28;45451;-72
2022/04/08 13:23:32;;;;;;;;;4.25;4.25;;;;;10.11;67.31;99089.75;5056973;28;45478;-71
2022/04/08 13:25:57;;;;;;;;;3.00;3.00;;;;;10.02;66.67;99093.94;5063581;28;45300;-71
2022/04/08 13:28:22;;;;;;;;;3.75;3.00;;;;;9.97;66.63;99082.69;5062347;28;45383;-72
2022/04/08 13:30:48;;;;;;;;;3.25;3.25;;;;;9.95;68.11;99089.97;5057339;28;45394;-73
2022/04/08 13:33:13;;;;;;;;;3.00;3.00;;;;;9.96;66.48;99066.72;5075870;28;45555;-72
2022/04/08 13:35:39;;;;;;;;;2.00;2.00;;;;;9.94;67.74;99071.34;5056248;28;45438;-71
2022/04/08 13:38:04;;;;;;;;;2.00;2.00;;;;;9.95;67.12;99067.72;5056727;28;46594;-72
2022/04/08 13:40:30;;;;;;;;;3.00;2.00;;;;;9.94;67.15;99107.00;5063016;28;45405;-72
2022/04/08 13:42:58;;;;;;;;;4.50;4.25;;;;;9.97;66.95;99116.63;5076166;28;45447;-73
2022/04/08 13:45:23;;;;;;;;;1.25;1.25;;;;;9.83;66.41;99064.91;5069703;28;45150;-75
2022/04/08 13:47:50;;;;;;;;;2.00;2.00;;;;;9.91;66.22;99096.50;5056476;28;45622;-75
2022/04/08 13:50:15;;;;;;;;;2.75;2.75;;;;;9.88;66.87;99096.69;5056240;28;45488;-75
2022/04/08 13:52:41;;;;;;;;;2.25;1.25;;;;;9.83;65.81;99097.03;5070383;28;45692;-74
2022/04/08 13:55:07;;;;;;;;;2.00;2.00;;;;;9.79;66.20;99092.84;5076332;28;45430;-75
2022/04/08 13:57:32;;;;;;;;;2.00;2.00;;;;;9.77;66.62;99040.41;5075373;28;46571;-74
2022/04/08 13:59:59;;;;;;;;;2.00;2.00;;;;;9.76;66.30;99026.16;5076582;28;45526;-74
2022/04/08 14:02:25;;;;;;;;;2.00;2.00;;;;;9.71;66.53;99017.59;5076178;28;45489;-74
2022/04/08 14:04:50;;;;;;;;;1.75;1.75;;;;;9.90;66.74;99009.13;5076247;28;45248;-73
2022/04/08 14:07:16;;;;;;;;;2.00;2.00;;;;;10.20;66.58;98998.09;5075813;28;45493;-74
2022/04/08 14:09:42;;;;;;;;;2.00;2.00;;;;;10.55;66.02;98968.72;5073359;28;45477;-76
2022/04/08 14:12:07;;;;;;;;;2.00;2.00;;;;;11.13;64.95;98953.63;5074157;28;45418;-74
2022/04/08 14:14:33;;;;;;;;;2.50;2.50;;;;;11.57;62.94;98968.97;5073766;28;46357;-76
2022/04/08 14:16:58;;;;;;;;;2.50;2.50;;;;;11.65;62.13;98966.53;5074237;28;45836;-75
2022/04/08 14:19:24;;;;;;;;;3.25;3.00;;;;;11.61;63.56;98963.22;5053664;28;45458;-74
2022/04/08 14:21:51;;;;;;;;;2.00;2.00;;;;;11.57;62.79;98979.72;5055344;28;45308;-74
2022/04/08 14:24:16;;;;;;;;;2.00;2.00;;;;;11.46;62.41;98998.47;5043062;28;45504;-74
2022/04/08 14:26:42;;;;;;;;;2.50;1.75;;;;;11.34;62.80;99010.97;5067712;28;45363;-75
2022/04/08 14:29:08;;;;;;;;;1.50;1.50;;;;;11.23;63.18;99014.47;5055524;28;45455;-75
2022/04/08 14:31:33;;;;;;;;;2.50;2.00;;;;;11.04;62.60;98997.22;5060821;28;45503;-74
2022/04/08 14:33:58;;;;;;;;;4.25;3.25;;;;;11.04;64.34;99002.59;5069894;28;45364;-73
2022/04/08 14:36:24;;;;;;;;;3.25;3.25;;;;;11.00;64.66;99018.03;5037391;28;47844;-75
2022/04/08 14:38:49;;;;;;;;;3.75;3.50;;;;;10.95;65.43;99018.41;5055377;28;45490;-75
2022/04/08 14:41:18;;;;;;;;;3.75;3.00;;;;;10.89;64.89;99013.47;5056088;28;45319;-74
2022/04/08 14:43:43;;;;;;;;;2.00;2.00;;;;;10.81;65.01;99005.16;5055809;28;45566;-74
2022/04/08 14:46:09;;;;;;;;;4.50;2.75;;;;;10.76;65.56;99014.50;5058209;28;45366;-73
2022/04/08 14:48:35;;;;;;;;;3.75;3.75;;;;;10.70;65.89;99021.19;5057211;28;45573;-73
2022/04/08 14:51:01;;;;;;;;;3.00;3.00;;;;;10.68;65.83;99016.91;5056765;28;45518;-75
2022/04/08 14:53:27;;;;;;;;;3.00;3.00;;;;;10.59;65.89;99008.56;5057224;28;46373;-76
2022/04/08 14:55:52;;;;;;;;;3.75;3.75;;;;;10.53;66.47;99000.13;5041076;28;45837;-74
2022/04/08 14:58:18;;;;;;;;;3.00;3.00;;;;;10.50;65.61;99000.34;5055716;28;45422;-74
2022/04/08 15:00:44;;;;;;;;;6.25;4.50;;;;;10.53;65.96;99009.03;5055608;28;45453;-74
2022/04/08 15:03:09;;;;;;;;;5.50;5.50;;;;;10.46;65.67;99001.56;5054996;28;45513;-73
2022/04/08 15:05:35;;;;;;;;;5.25;3.00;;;;;10.44;65.27;98987.41;5053860;28;46283;-74
2022/04/08 15:08:00;;;;;;;;;5.00;5.00;;;;;10.39;65.80;99005.63;5054443;28;45322;-75
2022/04/08 15:10:26;;;;;;;;;3.50;3.50;;;;;10.27;66.46;98993.16;5055187;28;46714;-74
2022/04/08 15:12:53;;;;;;;;;3.00;3.00;;;;;10.32;66.12;99012.41;5055206;28;45633;-74
2022/04/08 15:15:18;;;;;;;;;3.00;3.00;;;;;10.22;66.09;99001.50;5054603;28;45278;-73
2022/04/08 15:17:44;;;;;;;;;2.00;2.00;;;;;10.26;65.97;99010.19;5054370;28;45448;-75
2022/04/08 15:20:09;;;;;;;;;1.25;1.25;;;;;10.19;65.72;99002.59;5067210;28;45607;-74
2022/04/08 15:22:35;;;;;;;;;2.00;2.00;;;;;10.18;65.85;99035.69;5054897;28;45465;-74
2022/04/08 15:25:00;;;;;;;;;2.00;2.00;;;;;10.16;65.17;99084.94;5054462;28;45333;-74
2022/04/08 15:27:26;;;;;;;;;1.00;1.00;;;;;10.10;65.12;99082.69;5067434;28;45407;-74
2022/04/08 15:29:51;;;;;;;;;2.00;1.00;;;;;10.01;66.02;99062.78;5054415;28;45454;-75
2022/04/08 15:32:17;;;;;;;;;2.25;2.25;;;;;10.00;66.33;99058.38;5061028;28;45374;-74
2022/04/08 15:34:43;;;;;;;;;1.25;1.25;;;;;10.00;66.93;99070.91;5044069;28;48216;-74
2022/04/08 15:37:09;;;;;;;;;1.00;1.00;;;;;9.88;65.85;99062.75;5053857;28;45453;-74
2022/04/08 15:39:35;;;;;;;;;1.00;1.00;;;;;9.79;66.17;99054.50;5053382;28;45465;-74
2022/04/08 15:42:00;;;;;;;;;4.75;2.75;;;;;9.64;66.01;99035.03;5054971;28;45567;-70
2022/04/08 15:44:25;;;;;;;;;1.75;1.75;;;;;9.70;66.25;99065.84;5054403;28;45391;-71
2022/04/08 15:46:51;;;;;;;;;2.50;2.50;;;;;9.72;67.52;99091.56;5054524;28;45226;-73
2022/04/08 15:49:16;;;;;;;;;1.00;1.00;;;;;9.68;66.87;99079.34;5054491;28;45158;-74
2022/04/08 15:51:42;;;;;;;;;2.00;1.25;;;;;9.56;65.46;99066.81;5053979;28;45336;-74
2022/04/08 15:54:07;;;;;;;;;2.00;2.00;;;;;9.68;65.98;99105.25;5053665;28;46117;-73
2022/04/08 15:56:32;;;;;;;;;0.00;0.00;;;;;9.62;65.43;99111.00;5053941;28;45355;-73
2022/04/08 15:58:58;;;;;;;;;1.50;1.50;;;;;9.59;65.61;99116.59;5054184;28;45331;-77
2022/04/08 16:01:24;;;;;;;;;0.75;0.75;;;;;9.63;64.51;99132.31;5053554;28;45402;-78
2022/04/08 16:03:49;;;;;;;;;1.75;1.00;;;;;9.54;65.99;99140.94;5054180;28;45997;-75